createdAt,value
2019-05-19T00:00:31.419Z,13.50
2019-05-19T00:01:35.248Z,13.60
2019-05-19T00:02:40.844Z,13.50
2019-05-19T00:03:44.788Z,13.50
2019-05-19T00:04:48.740Z,13.50
2019-05-19T00:05:52.490Z,13.50
2019-05-19T00:06:56.443Z,13.50
2019-05-19T00:08:00.243Z,13.50
2019-05-19T00:09:05.300Z,13.50
2019-05-19T00:10:09.407Z,13.50
2019-05-19T00:11:13.379Z,13.50
2019-05-19T00:12:17.144Z,13.50
2019-05-19T00:13:21.133Z,13.40
2019-05-19T00:14:24.963Z,13.30
2019-05-19T00:15:28.907Z,13.40
2019-05-19T00:16:32.699Z,13.40
2019-05-19T00:17:36.643Z,13.30
2019-05-19T00:18:40.408Z,13.30
2019-05-19T00:19:44.357Z,13.30
2019-05-19T00:20:48.192Z,13.30
2019-05-19T00:21:52.081Z,13.30
2019-05-19T00:22:55.844Z,13.30
2019-05-19T00:24:00.019Z,13.30
2019-05-19T00:25:04.279Z,13.30
2019-05-19T00:26:08.259Z,13.20
2019-05-19T00:27:12.008Z,13.20
2019-05-19T00:28:15.947Z,13.20
2019-05-19T00:29:19.816Z,13.20
2019-05-19T00:30:23.796Z,13.10
2019-05-19T00:31:27.538Z,13.20
2019-05-19T00:32:31.489Z,13.20
2019-05-19T00:33:35.363Z,13.20
2019-05-19T00:34:39.303Z,13.20
2019-05-19T00:35:43.098Z,13.20
2019-05-19T00:36:47.044Z,13.10
2019-05-19T00:37:50.809Z,13.10
2019-05-19T00:38:54.748Z,13.10
2019-05-19T00:39:58.607Z,13.10
2019-05-19T00:41:02.543Z,13.10
2019-05-19T00:42:06.376Z,13.10
2019-05-19T00:43:10.324Z,13.10
2019-05-19T00:44:14.087Z,13.00
2019-05-19T00:45:18.709Z,13.00
2019-05-19T00:46:22.727Z,13.00
2019-05-19T00:47:26.681Z,13.00
2019-05-19T00:48:30.444Z,12.90
2019-05-19T00:49:41.298Z,13.00
2019-05-19T00:50:40.090Z,13.00
2019-05-19T00:51:44.904Z,12.90
2019-05-19T00:52:48.636Z,13.00
2019-05-19T00:53:52.578Z,12.90
2019-05-19T00:54:56.343Z,13.00
2019-05-19T00:56:02.228Z,13.00
2019-05-19T00:57:06.828Z,12.90
2019-05-19T00:58:10.844Z,12.90
2019-05-19T00:59:15.268Z,12.90
2019-05-19T01:00:20.459Z,12.80
2019-05-19T01:02:29.926Z,12.80
2019-05-19T01:03:33.675Z,12.70
2019-05-19T01:04:37.615Z,12.70
2019-05-19T01:05:41.406Z,12.60
2019-05-19T01:06:45.419Z,12.70
2019-05-19T01:07:49.172Z,12.60
2019-05-19T01:08:53.115Z,12.70
2019-05-19T01:09:56.866Z,12.60
2019-05-19T01:11:01.185Z,12.60
2019-05-19T01:12:05.088Z,12.70
2019-05-19T01:13:09.032Z,12.70
2019-05-19T01:14:15.344Z,12.80
2019-05-19T01:15:18.953Z,12.70
2019-05-19T01:16:22.719Z,12.60
2019-05-19T01:17:26.698Z,12.60
2019-05-19T01:18:30.448Z,12.50
2019-05-19T01:19:34.392Z,12.60
2019-05-19T01:20:38.178Z,12.70
2019-05-19T01:21:42.791Z,12.70
2019-05-19T01:22:46.556Z,12.80
2019-05-19T01:23:50.500Z,12.70
2019-05-19T01:24:54.296Z,12.70
2019-05-19T01:25:58.246Z,12.80
2019-05-19T01:27:02.103Z,12.70
2019-05-19T01:28:06.044Z,12.70
2019-05-19T01:29:09.813Z,12.70
2019-05-19T01:30:14.612Z,12.70
2019-05-19T01:31:18.371Z,12.80
2019-05-19T01:32:22.417Z,12.70
2019-05-19T01:33:26.203Z,12.80
2019-05-19T01:34:30.131Z,12.70
2019-05-19T01:35:33.931Z,12.70
2019-05-19T01:36:37.865Z,12.70
2019-05-19T01:37:41.628Z,12.70
2019-05-19T01:38:45.555Z,12.60
2019-05-19T01:39:49.310Z,12.70
2019-05-19T01:40:53.292Z,12.70
2019-05-19T01:41:57.075Z,12.60
2019-05-19T01:43:01.020Z,12.70
2019-05-19T01:44:05.017Z,12.70
2019-05-19T01:45:09.908Z,12.60
2019-05-19T01:46:13.739Z,12.70
2019-05-19T01:47:17.671Z,12.60
2019-05-19T01:48:21.443Z,12.60
2019-05-19T01:49:25.409Z,12.60
2019-05-19T01:50:29.186Z,12.50
2019-05-19T01:51:33.124Z,12.50
2019-05-19T01:52:36.916Z,12.50
2019-05-19T01:53:40.861Z,12.40
2019-05-19T01:54:44.617Z,12.40
2019-05-19T01:55:48.563Z,12.40
2019-05-19T01:56:52.355Z,12.30
2019-05-19T01:57:56.291Z,12.30
2019-05-19T02:00:04.821Z,12.30
2019-05-19T02:01:08.578Z,12.30
2019-05-19T02:02:12.555Z,12.30
2019-05-19T02:03:16.312Z,12.30
2019-05-19T02:04:20.255Z,12.30
2019-05-19T02:05:24.079Z,12.30
2019-05-19T02:06:28.027Z,12.20
2019-05-19T02:07:31.828Z,12.20
2019-05-19T02:08:35.873Z,12.20
2019-05-19T02:09:39.656Z,12.20
2019-05-19T02:10:43.600Z,12.20
2019-05-19T02:11:47.361Z,12.20
2019-05-19T02:12:51.294Z,12.20
2019-05-19T02:13:55.047Z,12.20
2019-05-19T02:14:59.032Z,12.20
2019-05-19T02:16:02.791Z,12.10
2019-05-19T02:17:07.099Z,12.20
2019-05-19T02:18:10.919Z,12.10
2019-05-19T02:19:14.896Z,12.10
2019-05-19T02:20:32.240Z,12.20
2019-05-19T02:21:24.408Z,12.10
2019-05-19T02:22:28.163Z,12.20
2019-05-19T02:23:32.167Z,12.20
2019-05-19T02:24:35.965Z,12.10
2019-05-19T02:25:39.906Z,12.10
2019-05-19T02:26:43.665Z,12.10
2019-05-19T02:27:47.624Z,12.10
2019-05-19T02:28:51.405Z,12.10
2019-05-19T02:29:55.384Z,12.00
2019-05-19T02:30:59.148Z,12.10
2019-05-19T02:32:03.092Z,12.10
2019-05-19T02:33:06.855Z,12.10
2019-05-19T02:34:10.896Z,12.00
2019-05-19T02:35:14.792Z,12.00
2019-05-19T02:36:18.742Z,12.10
2019-05-19T02:37:22.499Z,12.10
2019-05-19T02:38:26.477Z,12.00
2019-05-19T02:39:30.232Z,12.00
2019-05-19T02:40:36.495Z,12.00
2019-05-19T02:41:42.488Z,12.00
2019-05-19T02:42:47.294Z,12.10
2019-05-19T02:43:53.282Z,12.10
2019-05-19T02:44:59.864Z,12.00
2019-05-19T02:46:04.957Z,12.00
2019-05-19T02:47:10.579Z,12.00
2019-05-19T02:48:14.568Z,12.00
2019-05-19T02:49:20.044Z,12.00
2019-05-19T02:50:24.933Z,11.90
2019-05-19T02:51:31.624Z,11.90
2019-05-19T02:52:37.319Z,11.90
2019-05-19T02:53:41.999Z,11.90
2019-05-19T02:54:46.108Z,11.90
2019-05-19T02:55:50.720Z,11.90
2019-05-19T02:56:54.729Z,11.90
2019-05-19T02:57:59.608Z,11.90
2019-05-19T02:59:03.891Z,11.80
2019-05-19T03:00:09.386Z,11.80
2019-05-19T03:01:13.168Z,11.80
2019-05-19T03:02:17.157Z,11.80
2019-05-19T03:03:20.905Z,11.80
2019-05-19T03:04:24.844Z,11.70
2019-05-19T03:05:28.600Z,11.70
2019-05-19T03:06:32.596Z,11.70
2019-05-19T03:07:36.344Z,11.70
2019-05-19T03:08:40.278Z,11.70
2019-05-19T03:09:44.025Z,11.70
2019-05-19T03:10:48.035Z,11.70
2019-05-19T03:11:51.833Z,11.70
2019-05-19T03:12:55.782Z,11.70
2019-05-19T03:13:59.540Z,11.60
2019-05-19T03:15:03.646Z,11.60
2019-05-19T03:16:07.408Z,11.60
2019-05-19T03:17:11.397Z,11.60
2019-05-19T03:18:15.147Z,11.60
2019-05-19T03:19:19.100Z,11.50
2019-05-19T03:20:22.854Z,11.50
2019-05-19T03:21:26.907Z,11.50
2019-05-19T03:22:30.680Z,11.50
2019-05-19T03:23:34.623Z,11.50
2019-05-19T03:24:38.382Z,11.60
2019-05-19T03:25:44.182Z,11.60
2019-05-19T03:26:47.988Z,11.60
2019-05-19T03:27:51.932Z,11.50
2019-05-19T03:28:55.684Z,11.50
2019-05-19T03:30:00.896Z,11.50
2019-05-19T03:31:09.060Z,11.50
2019-05-19T03:32:14.306Z,11.50
2019-05-19T03:33:28.209Z,11.50
2019-05-19T03:34:32.162Z,11.50
2019-05-19T03:35:35.969Z,11.50
2019-05-19T03:36:39.905Z,11.50
2019-05-19T03:37:43.656Z,11.50
2019-05-19T03:38:47.611Z,11.60
2019-05-19T03:39:51.359Z,11.60
2019-05-19T03:40:55.338Z,11.60
2019-05-19T03:41:59.093Z,11.60
2019-05-19T03:43:03.077Z,11.60
2019-05-19T03:44:06.839Z,11.60
2019-05-19T03:45:10.967Z,11.60
2019-05-19T03:46:14.715Z,11.70
2019-05-19T03:47:18.666Z,11.70
2019-05-19T03:48:22.431Z,11.70
2019-05-19T03:49:26.367Z,11.70
2019-05-19T03:50:30.152Z,11.70
2019-05-19T03:51:34.092Z,11.70
2019-05-19T03:52:37.843Z,11.70
2019-05-19T03:53:41.781Z,11.70
2019-05-19T03:54:45.576Z,11.70
2019-05-19T03:55:49.521Z,11.70
2019-05-19T03:56:53.318Z,11.70
2019-05-19T03:57:57.249Z,11.70
2019-05-19T03:59:01.015Z,11.70
2019-05-19T04:00:06.583Z,11.70
2019-05-19T04:01:10.346Z,11.70
2019-05-19T04:02:14.327Z,11.70
2019-05-19T04:03:18.192Z,11.70
2019-05-19T04:04:22.129Z,11.70
2019-05-19T04:05:25.881Z,11.70
2019-05-19T04:06:29.843Z,11.70
2019-05-19T04:07:33.595Z,11.70
2019-05-19T04:08:37.541Z,11.70
2019-05-19T04:09:41.326Z,11.80
2019-05-19T04:10:45.266Z,11.80
2019-05-19T04:11:49.048Z,11.80
2019-05-19T04:12:53.005Z,11.80
2019-05-19T04:13:56.792Z,11.90
2019-05-19T04:15:00.737Z,11.90
2019-05-19T04:16:04.487Z,11.90
2019-05-19T04:17:08.429Z,11.90
2019-05-19T04:18:12.217Z,11.90
2019-05-19T04:19:16.166Z,11.90
2019-05-19T04:20:19.959Z,11.90
2019-05-19T04:21:23.851Z,11.90
2019-05-19T04:22:27.615Z,11.90
2019-05-19T04:23:31.588Z,11.90
2019-05-19T04:24:38.424Z,11.90
2019-05-19T04:25:42.360Z,11.90
2019-05-19T04:26:46.116Z,11.90
2019-05-19T04:27:50.051Z,11.90
2019-05-19T04:28:53.837Z,11.90
2019-05-19T04:29:58.407Z,11.90
2019-05-19T04:31:02.182Z,11.90
2019-05-19T04:32:06.121Z,11.90
2019-05-19T04:33:09.904Z,12.00
2019-05-19T04:34:13.856Z,12.00
2019-05-19T04:35:17.613Z,12.10
2019-05-19T04:36:21.612Z,12.10
2019-05-19T04:37:25.369Z,12.10
2019-05-19T04:38:29.351Z,12.10
2019-05-19T04:39:33.105Z,12.10
2019-05-19T04:40:37.049Z,12.10
2019-05-19T04:41:40.800Z,12.10
2019-05-19T04:42:44.789Z,12.10
2019-05-19T04:43:48.573Z,12.20
2019-05-19T04:44:52.520Z,12.20
2019-05-19T04:45:56.267Z,12.20
2019-05-19T04:47:00.219Z,12.20
2019-05-19T04:48:03.999Z,12.20
2019-05-19T04:49:07.947Z,12.20
2019-05-19T04:50:11.834Z,12.30
2019-05-19T04:51:15.786Z,12.30
2019-05-19T04:52:19.572Z,12.30
2019-05-19T04:53:23.506Z,12.40
2019-05-19T04:54:27.265Z,12.40
2019-05-19T04:55:31.199Z,12.40
2019-05-19T04:56:34.963Z,12.40
2019-05-19T04:57:38.943Z,12.50
2019-05-19T04:58:42.768Z,12.50
2019-05-19T04:59:46.712Z,12.60
2019-05-19T05:00:50.468Z,12.60
2019-05-19T05:01:54.410Z,12.60
2019-05-19T05:02:58.179Z,12.60
2019-05-19T05:04:02.142Z,12.70
2019-05-19T05:05:08.692Z,12.70
2019-05-19T05:06:12.635Z,12.60
2019-05-19T05:07:16.415Z,12.60
2019-05-19T05:08:29.601Z,12.60
2019-05-19T05:09:25.859Z,12.70
2019-05-19T05:10:29.810Z,12.70
2019-05-19T05:11:33.564Z,12.70
2019-05-19T05:12:37.545Z,12.70
2019-05-19T05:13:41.332Z,12.80
2019-05-19T05:14:45.303Z,12.80
2019-05-19T05:15:49.057Z,12.80
2019-05-19T05:16:53.000Z,12.90
2019-05-19T05:17:56.791Z,12.90
2019-05-19T05:19:00.741Z,13.00
2019-05-19T05:20:07.423Z,13.00
2019-05-19T05:21:11.375Z,13.10
2019-05-19T05:22:22.083Z,13.10
2019-05-19T05:23:20.734Z,13.10
2019-05-19T05:24:24.522Z,13.10
2019-05-19T05:25:28.498Z,13.20
2019-05-19T05:26:32.250Z,13.20
2019-05-19T05:27:36.191Z,13.20
2019-05-19T05:28:39.947Z,13.20
2019-05-19T05:29:43.918Z,13.20
2019-05-19T05:30:47.683Z,13.30
2019-05-19T05:31:51.614Z,13.30
2019-05-19T05:32:55.368Z,13.30
2019-05-19T05:33:59.306Z,13.40
2019-05-19T05:35:03.115Z,13.40
2019-05-19T05:36:07.166Z,13.30
2019-05-19T05:37:10.932Z,13.40
2019-05-19T05:38:14.868Z,13.40
2019-05-19T05:39:18.640Z,13.40
2019-05-19T05:40:22.620Z,13.50
2019-05-19T05:41:26.385Z,13.50
2019-05-19T05:42:31.981Z,13.50
2019-05-19T05:43:35.916Z,13.60
2019-05-19T05:44:39.870Z,13.60
2019-05-19T05:45:43.618Z,13.70
2019-05-19T05:46:47.563Z,13.70
2019-05-19T05:47:51.377Z,13.70
2019-05-19T05:48:55.345Z,13.70
2019-05-19T05:49:59.100Z,13.80
2019-05-19T05:51:03.039Z,13.80
2019-05-19T05:52:06.826Z,13.80
2019-05-19T05:53:10.771Z,13.80
2019-05-19T05:54:14.527Z,13.80
2019-05-19T05:55:18.470Z,13.70
2019-05-19T05:56:22.226Z,13.70
2019-05-19T05:57:26.221Z,13.70
2019-05-19T05:58:29.967Z,13.70
2019-05-19T05:59:33.919Z,13.80
2019-05-19T06:00:37.668Z,13.80
2019-05-19T06:01:41.668Z,13.80
2019-05-19T06:02:45.430Z,13.80
2019-05-19T06:03:49.366Z,13.90
2019-05-19T06:04:53.153Z,14.00
2019-05-19T06:05:57.105Z,14.10
2019-05-19T06:07:00.850Z,14.20
2019-05-19T06:08:04.804Z,14.20
2019-05-19T06:09:08.554Z,14.20
2019-05-19T06:10:13.074Z,14.30
2019-05-19T06:11:16.823Z,14.30
2019-05-19T06:12:20.839Z,14.40
2019-05-19T06:13:24.654Z,14.40
2019-05-19T06:14:28.617Z,14.40
2019-05-19T06:15:32.377Z,14.40
2019-05-19T06:16:36.315Z,14.50
2019-05-19T06:17:40.066Z,14.60
2019-05-19T06:18:44.040Z,14.50
2019-05-19T06:19:47.800Z,14.50
2019-05-19T06:20:51.802Z,14.60
2019-05-19T06:21:55.555Z,14.70
2019-05-19T06:22:59.540Z,14.70
2019-05-19T06:24:03.400Z,14.70
2019-05-19T06:25:07.340Z,14.80
2019-05-19T06:26:11.131Z,14.80
2019-05-19T06:27:15.077Z,14.90
2019-05-19T06:28:18.864Z,14.90
2019-05-19T06:29:22.808Z,14.90
2019-05-19T06:30:26.580Z,14.90
2019-05-19T06:31:30.565Z,14.90
2019-05-19T06:32:35.780Z,15.00
2019-05-19T06:33:39.719Z,15.10
2019-05-19T06:34:43.475Z,15.20
2019-05-19T06:35:47.515Z,15.10
2019-05-19T06:36:51.311Z,15.00
2019-05-19T06:37:55.261Z,14.90
2019-05-19T06:38:59.021Z,15.00
2019-05-19T06:40:03.141Z,15.00
2019-05-19T06:41:06.905Z,15.10
2019-05-19T06:42:11.692Z,15.10
2019-05-19T06:43:15.453Z,15.10
2019-05-19T06:44:19.424Z,15.20
2019-05-19T06:45:23.279Z,15.10
2019-05-19T06:46:27.219Z,15.10
2019-05-19T06:47:30.980Z,15.10
2019-05-19T06:48:34.956Z,15.10
2019-05-19T06:49:38.719Z,15.20
2019-05-19T06:50:42.659Z,15.20
2019-05-19T06:51:46.415Z,15.30
2019-05-19T06:52:50.377Z,15.20
2019-05-19T06:53:54.164Z,15.20
2019-05-19T06:54:58.110Z,15.30
2019-05-19T06:56:01.867Z,15.40
2019-05-19T06:57:05.843Z,15.50
2019-05-19T06:58:09.605Z,15.50
2019-05-19T06:59:13.547Z,15.60
2019-05-19T07:00:18.910Z,15.70
2019-05-19T07:01:22.864Z,15.70
2019-05-19T07:02:26.659Z,15.70
2019-05-19T07:03:30.693Z,15.80
2019-05-19T07:04:34.451Z,15.80
2019-05-19T07:05:38.464Z,15.90
2019-05-19T07:06:42.255Z,16.00
2019-05-19T07:07:46.184Z,16.00
2019-05-19T07:08:49.924Z,16.10
2019-05-19T07:09:58.350Z,16.10
2019-05-19T07:10:59.340Z,16.20
2019-05-19T07:12:03.259Z,16.20
2019-05-19T07:13:07.045Z,16.20
2019-05-19T07:14:10.981Z,16.30
2019-05-19T07:15:15.064Z,16.40
2019-05-19T07:16:19.012Z,16.40
2019-05-19T07:17:22.766Z,16.40
2019-05-19T07:18:26.804Z,16.40
2019-05-19T07:19:30.603Z,16.40
2019-05-19T07:20:34.544Z,16.40
2019-05-19T07:21:38.300Z,16.30
2019-05-19T07:22:42.396Z,16.40
2019-05-19T07:23:46.238Z,16.40
2019-05-19T07:24:50.189Z,16.30
2019-05-19T07:25:53.940Z,16.30
2019-05-19T07:26:57.882Z,16.50
2019-05-19T07:28:01.735Z,16.60
2019-05-19T07:29:07.885Z,16.70
2019-05-19T07:30:13.696Z,16.80
2019-05-19T07:31:17.611Z,16.80
2019-05-19T07:32:21.755Z,16.80
2019-05-19T07:33:26.131Z,16.80
2019-05-19T07:34:29.959Z,17.00
2019-05-19T07:35:33.900Z,17.00
2019-05-19T07:36:37.705Z,17.10
2019-05-19T07:37:41.625Z,17.00
2019-05-19T07:38:45.812Z,17.10
2019-05-19T07:39:49.806Z,17.20
2019-05-19T07:40:53.560Z,17.20
2019-05-19T07:41:57.513Z,17.30
2019-05-19T07:43:01.277Z,17.40
2019-05-19T07:44:05.327Z,17.40
2019-05-19T07:45:09.635Z,17.60
2019-05-19T07:46:13.611Z,17.70
2019-05-19T07:47:17.368Z,17.80
2019-05-19T07:48:21.319Z,17.70
2019-05-19T07:49:25.077Z,17.60
2019-05-19T07:50:29.070Z,17.60
2019-05-19T07:51:32.827Z,17.80
2019-05-19T07:52:36.784Z,17.90
2019-05-19T07:53:42.939Z,18.10
2019-05-19T07:54:46.187Z,18.30
2019-05-19T07:55:49.986Z,18.40
2019-05-19T07:56:53.946Z,18.60
2019-05-19T07:57:57.797Z,18.60
2019-05-19T07:59:02.191Z,18.60
2019-05-19T08:00:09.618Z,18.70
2019-05-19T08:01:13.594Z,18.80
2019-05-19T08:02:17.422Z,18.90
2019-05-19T08:03:21.418Z,19.00
2019-05-19T08:04:25.180Z,19.00
2019-05-19T08:05:29.143Z,19.10
2019-05-19T08:06:32.891Z,19.20
2019-05-19T08:07:36.879Z,19.30
2019-05-19T08:08:40.651Z,19.30
2019-05-19T08:09:44.599Z,19.40
2019-05-19T08:10:48.370Z,19.40
2019-05-19T08:11:52.321Z,19.30
2019-05-19T08:12:56.085Z,19.40
2019-05-19T08:14:00.086Z,19.60
2019-05-19T08:15:06.200Z,19.60
2019-05-19T08:16:10.163Z,19.60
2019-05-19T08:17:13.927Z,19.70
2019-05-19T08:18:17.884Z,19.80
2019-05-19T08:19:21.696Z,19.60
2019-05-19T08:20:25.641Z,19.60
2019-05-19T08:21:29.414Z,19.70
2019-05-19T08:22:33.351Z,19.70
2019-05-19T08:23:37.113Z,19.80
2019-05-19T08:24:41.113Z,19.80
2019-05-19T08:25:44.863Z,19.80
2019-05-19T08:26:48.819Z,19.90
2019-05-19T08:27:52.628Z,20.00
2019-05-19T08:28:56.577Z,20.10
2019-05-19T08:30:00.382Z,20.10
2019-05-19T08:31:04.638Z,20.20
2019-05-19T08:32:08.489Z,20.30
2019-05-19T08:33:12.479Z,20.20
2019-05-19T08:34:16.299Z,20.30
2019-05-19T08:35:20.193Z,20.20
2019-05-19T08:36:23.942Z,20.20
2019-05-19T08:37:27.892Z,20.20
2019-05-19T08:38:31.690Z,20.30
2019-05-19T08:39:35.632Z,20.30
2019-05-19T08:40:39.411Z,20.40
2019-05-19T08:41:43.400Z,20.60
2019-05-19T08:42:47.167Z,20.70
2019-05-19T08:43:53.365Z,20.80
2019-05-19T08:44:56.521Z,20.90
2019-05-19T08:46:00.459Z,21.00
2019-05-19T08:47:04.253Z,21.00
2019-05-19T08:48:08.209Z,21.10
2019-05-19T08:49:11.955Z,21.20
2019-05-19T08:50:15.913Z,21.40
2019-05-19T08:51:19.680Z,21.50
2019-05-19T08:52:23.661Z,21.50
2019-05-19T08:53:27.424Z,21.60
2019-05-19T08:54:31.481Z,21.80
2019-05-19T08:55:35.241Z,21.90
2019-05-19T08:56:39.264Z,22.00
2019-05-19T08:57:43.114Z,22.10
2019-05-19T08:58:47.123Z,22.20
2019-05-19T08:59:50.875Z,22.30
2019-05-19T09:00:54.827Z,22.40
2019-05-19T09:01:58.629Z,22.40
2019-05-19T09:03:03.029Z,22.40
2019-05-19T09:04:07.590Z,22.40
2019-05-19T09:05:11.670Z,22.40
2019-05-19T09:06:15.458Z,22.30
2019-05-19T09:07:19.419Z,22.30
2019-05-19T09:08:23.256Z,22.20
2019-05-19T09:09:27.222Z,22.10
2019-05-19T09:10:31.023Z,22.00
2019-05-19T09:11:34.967Z,21.80
2019-05-19T09:12:38.888Z,21.80
2019-05-19T09:13:42.869Z,21.60
2019-05-19T09:14:46.633Z,21.50
2019-05-19T09:15:50.608Z,21.40
2019-05-19T09:16:54.373Z,21.30
2019-05-19T09:17:58.377Z,21.30
2019-05-19T09:19:02.215Z,21.20
2019-05-19T09:20:06.697Z,21.30
2019-05-19T09:21:10.450Z,21.50
2019-05-19T09:22:14.402Z,21.60
2019-05-19T09:23:18.297Z,21.60
2019-05-19T09:24:30.112Z,21.60
2019-05-19T09:25:27.669Z,21.60
2019-05-19T09:26:31.660Z,21.70
2019-05-19T09:27:35.419Z,21.70
2019-05-19T09:28:39.369Z,21.80
2019-05-19T09:29:43.148Z,21.90
2019-05-19T09:30:47.188Z,21.80
2019-05-19T09:31:51.000Z,21.70
2019-05-19T09:32:54.980Z,21.70
2019-05-19T09:33:58.730Z,21.60
2019-05-19T09:35:02.678Z,21.60
2019-05-19T09:36:06.437Z,21.50
2019-05-19T09:37:10.385Z,21.30
2019-05-19T09:38:14.178Z,21.20
2019-05-19T09:39:18.136Z,21.10
2019-05-19T09:40:21.906Z,21.00
2019-05-19T09:41:26.115Z,21.00
2019-05-19T09:42:29.900Z,20.90
2019-05-19T09:43:33.842Z,20.90
2019-05-19T09:44:37.603Z,20.90
2019-05-19T09:45:41.617Z,21.00
2019-05-19T09:46:45.388Z,21.10
2019-05-19T09:47:49.373Z,21.20
2019-05-19T09:49:10.827Z,21.30
2019-05-19T09:50:14.977Z,21.40
2019-05-19T09:51:19.095Z,21.40
2019-05-19T09:52:22.677Z,21.50
2019-05-19T09:53:26.804Z,21.40
2019-05-19T09:54:42.730Z,21.30
2019-05-19T09:55:36.444Z,21.30
2019-05-19T09:56:40.095Z,21.30
2019-05-19T09:57:44.215Z,21.30
2019-05-19T09:58:47.787Z,21.30
2019-05-19T09:59:51.939Z,21.40
2019-05-19T10:00:55.511Z,21.40
2019-05-19T10:01:59.659Z,21.40
2019-05-19T10:03:03.327Z,21.40
2019-05-19T10:04:07.463Z,21.40
2019-05-19T10:05:11.278Z,21.40
2019-05-19T10:06:15.447Z,21.40
2019-05-19T10:07:19.028Z,21.30
2019-05-19T10:08:23.932Z,21.30
2019-05-19T10:09:51.211Z,21.30
2019-05-19T10:11:19.507Z,21.20
2019-05-19T10:12:23.089Z,21.10
2019-05-19T10:13:27.259Z,21.20
2019-05-19T10:14:30.897Z,21.10
2019-05-19T10:15:35.023Z,21.10
2019-05-19T10:16:38.648Z,21.20
2019-05-19T10:17:42.840Z,21.20
2019-05-19T10:18:46.420Z,21.40
2019-05-19T10:19:50.646Z,21.50
2019-05-19T10:20:54.184Z,21.50
2019-05-19T10:21:58.388Z,21.60
2019-05-19T10:23:02.000Z,21.60
2019-05-19T10:24:06.134Z,21.70
2019-05-19T10:25:21.726Z,21.70
2019-05-19T10:26:16.967Z,21.90
2019-05-19T10:27:21.707Z,22.10
2019-05-19T10:28:26.132Z,22.30
2019-05-19T10:29:29.718Z,22.60
2019-05-19T10:30:33.875Z,22.90
2019-05-19T10:31:37.491Z,23.20
2019-05-19T10:32:41.658Z,23.40
2019-05-19T10:33:45.251Z,23.50
2019-05-19T10:34:49.443Z,23.40
2019-05-19T10:35:53.056Z,23.60
2019-05-19T10:36:57.184Z,23.80
2019-05-19T10:38:00.755Z,23.80
2019-05-19T10:39:07.019Z,23.60
2019-05-19T10:40:11.039Z,23.50
2019-05-19T10:41:15.209Z,23.40
2019-05-19T10:42:18.776Z,23.50
2019-05-19T10:43:22.898Z,23.50
2019-05-19T10:44:26.467Z,23.50
2019-05-19T10:45:30.620Z,23.60
2019-05-19T10:47:37.811Z,23.60
2019-05-19T10:48:41.575Z,23.50
2019-05-19T10:49:45.519Z,23.40
2019-05-19T10:50:49.311Z,23.50
2019-05-19T10:51:53.256Z,23.60
2019-05-19T10:52:57.006Z,23.60
2019-05-19T10:54:00.951Z,23.80
2019-05-19T10:55:06.386Z,23.90
2019-05-19T10:56:10.321Z,24.00
2019-05-19T10:57:14.147Z,23.90
2019-05-19T10:58:18.089Z,23.90
2019-05-19T10:59:21.871Z,23.90
2019-05-19T11:00:25.826Z,24.00
2019-05-19T11:01:29.575Z,24.10
2019-05-19T11:02:33.561Z,24.10
2019-05-19T11:03:37.344Z,24.20
2019-05-19T11:04:41.325Z,24.30
2019-05-19T11:05:45.070Z,24.40
2019-05-19T11:06:49.010Z,24.40
2019-05-19T11:07:52.807Z,24.20
2019-05-19T11:08:56.752Z,24.20
2019-05-19T11:10:00.508Z,24.10
2019-05-19T11:11:04.490Z,24.10
2019-05-19T11:12:08.772Z,24.10
2019-05-19T11:13:13.461Z,24.30
2019-05-19T11:14:17.242Z,24.40
2019-05-19T11:15:21.324Z,24.60
2019-05-19T11:16:25.111Z,24.90
2019-05-19T11:17:29.127Z,25.10
2019-05-19T11:18:32.879Z,25.20
2019-05-19T11:19:36.855Z,25.20
2019-05-19T11:20:40.693Z,25.50
2019-05-19T11:21:44.628Z,25.60
2019-05-19T11:22:48.422Z,25.60
2019-05-19T11:23:52.383Z,25.70
2019-05-19T11:24:56.136Z,25.70
2019-05-19T11:26:00.120Z,25.70
2019-05-19T11:27:03.935Z,25.60
2019-05-19T11:28:07.925Z,25.60
2019-05-19T11:29:11.685Z,25.60
2019-05-19T11:30:15.699Z,25.50
2019-05-19T11:31:19.450Z,25.40
2019-05-19T11:32:23.408Z,25.40
2019-05-19T11:33:27.207Z,25.30
2019-05-19T11:34:31.160Z,25.30
2019-05-19T11:35:34.912Z,25.30
2019-05-19T11:36:38.851Z,25.30
2019-05-19T11:37:42.607Z,25.30
2019-05-19T11:38:46.603Z,25.50
2019-05-19T11:39:50.357Z,25.60
2019-05-19T11:40:54.292Z,25.60
2019-05-19T11:41:58.066Z,25.70
2019-05-19T11:43:02.055Z,25.70
2019-05-19T11:44:05.951Z,25.80
2019-05-19T11:45:10.032Z,25.70
2019-05-19T11:46:13.787Z,25.60
2019-05-19T11:47:17.725Z,25.50
2019-05-19T11:48:21.485Z,25.10
2019-05-19T11:49:25.469Z,25.10
2019-05-19T11:50:29.232Z,24.80
2019-05-19T11:51:33.240Z,24.90
2019-05-19T11:52:36.996Z,24.90
2019-05-19T11:53:40.959Z,24.90
2019-05-19T11:54:44.762Z,25.00
2019-05-19T11:55:49.176Z,25.10
2019-05-19T11:56:52.936Z,25.20
2019-05-19T11:57:56.884Z,25.20
2019-05-19T11:59:00.737Z,25.30
2019-05-19T12:00:06.740Z,25.20
2019-05-19T12:01:10.502Z,25.40
2019-05-19T12:02:14.447Z,25.60
2019-05-19T12:03:18.215Z,25.90
2019-05-19T12:04:22.151Z,26.10
2019-05-19T12:05:26.014Z,26.30
2019-05-19T12:06:38.914Z,26.40
2019-05-19T12:07:35.337Z,26.10
2019-05-19T12:08:39.277Z,25.80
2019-05-19T12:09:43.018Z,26.00
2019-05-19T12:10:47.010Z,26.20
2019-05-19T12:11:50.751Z,26.10
2019-05-19T12:12:54.696Z,26.00
2019-05-19T12:13:58.543Z,26.10
2019-05-19T12:15:02.573Z,26.20
2019-05-19T12:16:06.407Z,26.20
2019-05-19T12:17:10.408Z,26.20
2019-05-19T12:18:14.223Z,26.40
2019-05-19T12:19:18.211Z,26.40
2019-05-19T12:20:21.971Z,26.30
2019-05-19T12:21:25.907Z,26.10
2019-05-19T12:22:29.654Z,26.30
2019-05-19T12:23:33.595Z,26.40
2019-05-19T12:24:37.426Z,26.20
2019-05-19T12:25:41.374Z,26.30
2019-05-19T12:26:45.148Z,26.10
2019-05-19T12:27:49.086Z,26.10
2019-05-19T12:28:52.837Z,25.90
2019-05-19T12:29:56.774Z,25.70
2019-05-19T12:31:00.569Z,25.50
2019-05-19T12:32:04.507Z,25.40
2019-05-19T12:33:08.263Z,25.40
2019-05-19T12:34:12.213Z,25.30
2019-05-19T12:35:16.195Z,25.30
2019-05-19T12:36:20.181Z,25.20
2019-05-19T12:37:23.935Z,25.10
2019-05-19T12:38:27.880Z,25.10
2019-05-19T12:39:31.635Z,25.00
2019-05-19T12:40:35.572Z,25.00
2019-05-19T12:41:39.354Z,24.70
2019-05-19T12:42:43.306Z,24.60
2019-05-19T12:43:47.103Z,24.50
2019-05-19T12:44:51.040Z,24.40
2019-05-19T12:45:54.891Z,24.30
2019-05-19T12:46:58.816Z,24.20
2019-05-19T12:48:02.857Z,24.10
2019-05-19T12:49:06.836Z,24.20
2019-05-19T12:50:11.123Z,24.30
2019-05-19T12:51:15.070Z,24.30
2019-05-19T12:52:20.073Z,24.20
2019-05-19T12:53:24.060Z,24.10
2019-05-19T12:54:27.861Z,23.90
2019-05-19T12:55:31.793Z,23.90
2019-05-19T12:56:39.581Z,23.90
2019-05-19T12:57:41.259Z,23.80
2019-05-19T12:58:45.044Z,23.70
2019-05-19T12:59:48.982Z,23.90
2019-05-19T13:00:52.743Z,23.90
2019-05-19T13:01:56.724Z,23.90
2019-05-19T13:03:00.487Z,24.00
2019-05-19T13:04:04.436Z,24.20
2019-05-19T13:05:09.263Z,24.40
2019-05-19T13:06:13.210Z,24.70
2019-05-19T13:07:16.960Z,25.00
2019-05-19T13:08:20.909Z,25.40
2019-05-19T13:09:24.667Z,25.70
2019-05-19T13:10:28.660Z,25.80
2019-05-19T13:11:32.426Z,25.90
2019-05-19T13:12:36.378Z,26.00
2019-05-19T13:13:40.112Z,26.00
2019-05-19T13:14:44.072Z,25.90
2019-05-19T13:15:47.859Z,25.60
2019-05-19T13:16:51.804Z,25.30
2019-05-19T13:17:55.555Z,25.20
2019-05-19T13:18:59.499Z,24.90
2019-05-19T13:20:04.233Z,24.70
2019-05-19T13:21:08.195Z,24.60
2019-05-19T13:22:11.950Z,24.50
2019-05-19T13:23:15.897Z,24.50
2019-05-19T13:24:19.655Z,24.50
2019-05-19T13:25:23.655Z,24.60
2019-05-19T13:26:27.478Z,24.60
2019-05-19T13:27:31.355Z,24.50
2019-05-19T13:28:35.115Z,24.60
2019-05-19T13:29:39.064Z,24.60
2019-05-19T13:30:43.674Z,24.70
2019-05-19T13:31:47.704Z,24.80
2019-05-19T13:32:51.552Z,25.00
2019-05-19T13:33:55.423Z,25.30
2019-05-19T13:34:59.175Z,25.40
2019-05-19T13:36:03.197Z,25.60
2019-05-19T13:37:06.952Z,25.90
2019-05-19T13:38:10.888Z,25.90
2019-05-19T13:39:14.688Z,25.90
2019-05-19T13:40:18.654Z,25.90
2019-05-19T13:41:22.443Z,25.80
2019-05-19T13:42:26.391Z,25.70
2019-05-19T13:43:30.185Z,25.70
2019-05-19T13:44:34.097Z,25.50
2019-05-19T13:45:37.855Z,25.60
2019-05-19T13:46:41.856Z,25.60
2019-05-19T13:47:45.603Z,25.50
2019-05-19T13:48:49.552Z,25.50